Latest Weather Observations for Spring Bay

IDT60801

Issued at 12:35 pm EDT Thursday 23 October 2014 (issued every 30 minutes, with the page automatically refreshed every 10 minutes)

About weather observations | Map of weather stations | Latest weather observations for TAS | Other Formats
Station Details ID: 092133 Name: SPRING BAY NTC AWS Lat: -42.55 Lon: 147.93 Height: 0.0 m
Data from the previous 72 hours. | See also: Recent months for locations in Tasmania
Date/Time
EDT
Temp
°C
App
Temp
°C
Dew
Point
Rel
Hum
%
Delta-T
°C
Wind Press
QNH
hPa
Press
MSL
hPa
Rain
since 9 am
mm
Dir
 
Spd
km/h
Gust
km/h
Spd
kts
Gust
kts
23/12:30pm 13.3 - - - - SE 26 30 14 16 1025.6 1025.6 -
23/12:00pm 13.2 - - - - SE 24 28 13 15 1025.8 1025.8 -
23/11:30am 12.7 - - - - SE 24 30 13 16 1026.1 1026.1 -
23/11:00am 12.8 - - - - SE 24 28 13 15 1026.1 1026.1 -
23/10:30am 12.8 - - - - SE 26 32 14 17 1026.2 1026.2 -
23/10:00am 12.6 - - - - SE 26 30 14 16 1026.0 1026.0 -
23/09:30am 12.5 - - - - SE 22 30 12 16 1025.9 1025.9 -
23/09:00am 12.2 - - - - SE 24 28 13 15 1025.7 1025.7 -
23/08:30am 11.9 - - - - S 24 30 13 16 1025.2 1025.2 -
23/08:00am 11.9 - - - - S 20 28 11 15 1024.8 1024.8 -
23/07:30am 11.8 - - - - S 19 26 10 14 1024.5 1024.5 -
23/07:00am 11.7 - - - - S 17 20 9 11 1024.1 1024.1 -
23/06:30am 11.6 - - - - S 20 26 11 14 1023.6 1023.6 -
23/06:00am 11.7 - - - - SSE 24 33 13 18 1023.1 1023.1 -
23/05:30am 11.9 - - - - S 24 30 13 16 1022.6 1022.6 -
23/05:00am 12.0 - - - - S 17 20 9 11 1022.1 1022.1 -
23/04:30am 12.2 - - - - S 24 30 13 16 1021.7 1021.7 -
23/04:00am 12.1 - - - - S 30 37 16 20 1021.4 1021.4 -
23/03:30am 11.8 - - - - S 32 41 17 22 1021.2 1021.2 -
23/03:00am 12.6 - - - - S 35 44 19 24 1021.0 1021.0 -
23/02:30am 13.3 - - - - S 33 44 18 24 1020.5 1020.5 -
23/02:00am 13.9 - - - - S 30 37 16 20 1020.4 1020.4 -
23/01:30am 13.9 - - - - S 24 32 13 17 1020.3 1020.3 -
23/01:00am 14.3 - - - - S 20 30 11 16 1020.2 1020.2 -
23/12:30am 14.4 - - - - SSE 32 39 17 21 1019.7 1019.7 -
23/12:00am 14.5 - - - - SSE 32 37 17 20 1019.3 1019.3 -
 
Date/Time
EDT
Temp
°C
App
Temp
°C
Dew
Point
Rel
Hum
%
Delta-T
°C
Wind Press
QNH
hPa
Press
MSL
hPa
Rain
since 9 am
mm
Dir
 
Spd
km/h
Gust
km/h
Spd
kts
Gust
kts
22/11:30pm 14.6 - - - - SSE 20 28 11 15 1018.9 1018.9 -
22/11:00pm 14.9 - - - - S 26 35 14 19 1018.4 1018.4 -
22/10:30pm 14.6 - - - - S 13 17 7 9 1018.1 1018.1 -
22/10:00pm 14.2 - - - - SE 15 19 8 10 1017.6 1017.6 -
22/09:30pm 14.4 - - - - SE 30 35 16 19 1017.5 1017.5 -
22/09:00pm 14.6 - - - - SE 41 48 22 26 1017.1 1017.1 -
22/08:30pm 15.1 - - - - SSE 52 59 28 32 1016.3 1016.3 -
22/08:16pm 14.9 - - - - ESE 28 50 15 27 1015.8 1015.8 -
22/08:00pm 14.9 - - - - SSE 9 9 5 5 1015.1 1015.1 -
22/07:30pm 15.2 - - - - SE 6 9 3 5 1014.1 1014.1 -
22/07:00pm 15.2 - - - - W 2 6 1 3 1013.7 1013.7 -
22/06:30pm 15.7 - - - - NE 2 4 1 2 1013.7 1013.7 -
22/06:00pm 16.4 - - - - E 2 4 1 2 1013.8 1013.8 -
22/05:30pm 16.8 - - - - ENE 13 15 7 8 1013.6 1013.6 -
22/05:00pm 16.4 - - - - E 6 11 3 6 1013.7 1013.7 -
22/04:30pm 18.4 - - - - NE 19 22 10 12 1013.6 1013.6 -
22/04:00pm 19.1 - - - - NE 19 26 10 14 1013.4 1013.4 -
22/03:30pm 18.3 - - - - NE 24 28 13 15 1013.7 1013.7 -
22/03:00pm 20.2 - - - - ENE 17 24 9 13 1013.7 1013.7 -
22/02:30pm 20.3 - - - - NE 22 32 12 17 1013.8 1013.8 -
22/02:00pm 20.5 - - - - NE 20 28 11 15 1014.5 1014.5 -
22/01:30pm 20.2 - - - - NE 19 26 10 14 1014.9 1014.9 -
22/01:00pm 19.8 - - - - NE 22 28 12 15 1015.2 1015.2 -
22/12:30pm 20.7 - - - - N 15 26 8 14 1015.8 1015.8 -
22/12:00pm 19.8 - - - - NNW 17 28 9 15 1016.7 1016.7 -
22/11:30am 18.1 - - - - NNW 17 24 9 13 1017.4 1017.4 -
22/11:00am 16.8 - - - - NNW 22 28 12 15 1018.2 1018.2 -
22/10:30am 16.4 - - - - NW 22 26 12 14 1018.8 1018.8 -
22/10:00am 15.5 - - - - NW 13 17 7 9 1019.2 1019.2 -
22/09:30am 15.0 - - - - NW 17 26 9 14 1019.5 1019.5 -
22/09:00am 14.7 - - - - N 22 30 12 16 1019.7 1019.7 -
22/08:30am 13.8 - - - - N 19 26 10 14 1020.2 1020.2 -
22/08:00am 13.1 - - - - N 20 32 11 17 1020.5 1020.5 -
22/07:30am 12.5 - - - - N 20 28 11 15 1020.9 1020.9 -
22/07:00am 11.9 - - - - N 22 30 12 16 1021.3 1021.3 -
22/06:30am 11.3 - - - - N 19 30 10 16 1021.7 1021.7 -
22/06:00am 11.0 - - - - N 20 26 11 14 1021.9 1021.9 -
22/05:30am 10.9 - - - - N 15 20 8 11 1022.2 1022.2 -
22/05:00am 11.0 - - - - NNW 19 22 10 12 1022.5 1022.5 -
22/04:30am 11.0 - - - - N 19 26 10 14 1022.9 1022.9 -
22/04:00am 11.3 - - - - NNW 20 28 11 15 1023.5 1023.5 -
22/03:30am 11.5 - - - - NNW 19 24 10 13 1023.9 1023.9 -
22/03:00am 11.6 - - - - NNW 22 30 12 16 1024.2 1024.2 -
22/02:30am 11.2 - - - - NNW 15 20 8 11 1024.7 1024.7 -
22/02:00am 11.3 - - - - N 22 28 12 15 1024.9 1024.9 -
22/01:30am 11.4 - - - - N 19 26 10 14 1025.1 1025.1 -
22/01:00am 11.6 - - - - N 19 24 10 13 1025.7 1025.7 -
22/12:30am 11.9 - - - - N 20 28 11 15 1026.0 1026.0 -
22/12:00am 11.5 - - - - NNW 11 20 6 11 1026.4 1026.4 -
 
Date/Time
EDT
Temp
°C
App
Temp
°C
Dew
Point
Rel
Hum
%
Delta-T
°C
Wind Press
QNH
hPa
Press
MSL
hPa
Rain
since 9 am
mm
Dir
 
Spd
km/h
Gust
km/h
Spd
kts
Gust
kts
21/11:30pm 10.8 - - - - NNW 9 15 5 8 1026.8 1026.8 -
21/11:00pm 11.3 - - - - NW 7 11 4 6 1027.1 1027.1 -
21/10:30pm 11.9 - - - - NW 13 19 7 10 1027.1 1027.1 -
21/10:00pm 12.4 - - - - NW 11 19 6 10 1027.4 1027.4 -
21/09:30pm 13.0 - - - - NNW 13 17 7 9 1027.8 1027.8 -
21/09:00pm 13.3 - - - - N 17 28 9 15 1027.6 1027.6 -
21/08:30pm 13.3 - - - - N 15 24 8 13 1027.8 1027.8 -
21/08:00pm 13.5 - - - - N 17 28 9 15 1027.9 1027.9 -
21/07:30pm 13.7 - - - - N 15 28 8 15 1028.1 1028.1 -
21/07:00pm 14.3 - - - - N 19 30 10 16 1028.1 1028.1 -
21/06:30pm 14.7 - - - - N 19 30 10 16 1028.3 1028.3 -
21/06:00pm 15.0 - - - - N 19 32 10 17 1028.2 1028.2 -
21/05:30pm 15.1 - - - - N 26 35 14 19 1028.4 1028.4 -
21/05:00pm 15.4 - - - - N 30 41 16 22 1028.5 1028.5 -
21/04:30pm 15.4 - - - - N 26 41 14 22 1028.7 1028.7 -
21/04:00pm 15.9 - - - - N 28 39 15 21 1029.1 1029.1 -
21/03:30pm 15.3 - - - - N 24 44 13 24 1029.6 1029.6 -
21/03:00pm 15.7 - - - - NNE 20 37 11 20 1030.1 1030.1 -
21/02:30pm 15.4 - - - - NNE 26 39 14 21 1030.5 1030.5 -
21/02:00pm 15.3 - - - - NNE 26 37 14 20 1031.0 1031.0 -
21/01:30pm 15.0 - - - - NNE 22 39 12 21 1031.4 1031.4 -
21/01:00pm 14.7 - - - - NNE 26 39 14 21 1031.7 1031.7 -
21/12:30pm 15.0 - - - - NNE 24 37 13 20 1031.9 1031.9 -
21/12:00pm 14.5 - - - - NNE 22 37 12 20 1032.4 1032.4 -
21/11:30am 14.1 - - - - NNE 19 35 10 19 1032.7 1032.7 -
21/11:00am 13.8 - - - - N 19 33 10 18 1033.1 1033.1 -
21/10:30am 13.9 - - - - NNE 11 20 6 11 1033.6 1033.6 -
21/10:00am 12.9 - - - - N 19 26 10 14 1033.8 1033.8 -
21/09:30am 12.5 - - - - NNW 22 32 12 17 1033.9 1033.9 -
21/09:00am 11.4 - - - - W 4 15 2 8 1034.1 1034.1 -
21/08:30am 11.0 - - - - N 2 6 1 3 1034.1 1034.1 -
21/08:00am 7.8 - - - - NW 4 6 2 3 1034.2 1034.2 -
21/07:30am 6.6 - - - - NW 6 7 3 4 1034.2 1034.2 -
21/07:00am 6.4 - - - - WNW 6 7 3 4 1034.1 1034.1 -
21/06:30am 5.9 - - - - WNW 4 7 2 4 1033.9 1033.9 -
21/06:00am 6.0 - - - - NW 7 9 4 5 1033.8 1033.8 -
21/05:30am 6.0 - - - - NW 13 15 7 8 1033.5 1033.5 -
21/05:00am 5.5 - - - - NNW 7 11 4 6 1033.3 1033.3 -
21/04:30am 6.2 - - - - WNW 6 7 3 4 1033.4 1033.4 -
21/04:00am 6.3 - - - - NW 9 13 5 7 1033.2 1033.2 -
21/03:30am 6.8 - - - - NW 7 11 4 6 1033.4 1033.4 -
21/03:00am 7.0 - - - - NW 9 11 5 6 1033.6 1033.6 -
21/02:30am 7.4 - - - - NW 9 11 5 6 1033.7 1033.7 -
21/02:00am 7.5 - - - - NW 11 13 6 7 1033.7 1033.7 -
21/01:30am 7.7 - - - - NNW 13 15 7 8 1034.1 1034.1 -
21/01:00am 8.5 - - - - NW 9 15 5 8 1034.4 1034.4 -
21/12:30am 9.1 - - - - NNW 7 13 4 7 1034.6 1034.6 -
21/12:00am 10.4 - - - - NNE 9 11 5 6 1034.7 1034.7 -

Other Formats:

Comma delimited format used in spreadsheet applications
http://www.bom.gov.au/fwo/IDT60801/IDT60801.95987.axf

JavaScript Object Notation format (JSON) in row-major order
http://www.bom.gov.au/fwo/IDT60801/IDT60801.95987.json